Time;durP1;ratioP1;P1;durP2;ratioP2;P2;SDS_P1;SDS_P2;PMS_P1;PMS_P2;Temp;Humidity;BMP_temperature;BMP_pressure;BME280_temperature;BME280_humidity;BME280_pressure;Samples;Min_cycle;Max_cycle;Signal;HPM_P1;HPM_P2
2022/07/09 00:02:05;;;;;;;;;;;;;;;27.96;37.25;100581.54;105267;1299;63398;-81
2022/07/09 00:04:30;;;;;;;;;;;;;;;27.97;37.16;100584.91;105216;1299;62076;-81
2022/07/09 00:06:56;;;;;;;;;;;;;;;27.96;37.06;100584.42;105259;1299;62068;-81
2022/07/09 00:09:21;;;;;;;;;;;;;;;27.96;37.28;100584.80;105201;1299;62126;-82
2022/07/09 00:11:47;;;;;;;;;;;;;;;27.96;37.09;100584.29;105168;1300;62120;-82
2022/07/09 00:14:12;;;;;;;;;;;;;;;27.96;37.28;100587.67;105205;1299;62084;-82
2022/07/09 00:16:38;;;;;;;;;;;;;;;27.96;37.25;100583.88;105224;1300;61957;-82
2022/07/09 00:19:04;;;;;;;;;;;;;;;27.96;37.39;100587.35;105197;1299;62816;-82
2022/07/09 00:21:29;;;;;;;;;;;;;;;27.96;37.16;100589.52;105225;1299;62090;-82
2022/07/09 00:23:55;;;;;;;;;;;;;;;27.95;37.41;100586.70;104984;1298;62053;-82
2022/07/09 00:26:20;;;;;;;;;;;;;;;27.95;37.23;100584.13;105211;1300;62062;-82
2022/07/09 00:28:46;;;;;;;;;;;;;;;27.95;37.42;100583.58;105266;1300;62038;-81
2022/07/09 00:31:11;;;;;;;;;;;;;;;27.95;37.50;100586.70;105354;1298;62091;-82
2022/07/09 00:33:37;;;;;;;;;;;;;;;27.96;37.19;100584.29;105422;1301;61924;-82
2022/07/09 00:36:02;;;;;;;;;;;;;;;27.96;37.24;100585.20;105375;1301;62075;-82
2022/07/09 00:38:28;;;;;;;;;;;;;;;27.96;37.34;100586.06;105457;1300;62896;-82
2022/07/09 00:40:53;;;;;;;;;;;;;;;27.96;37.48;100584.04;105398;1301;61924;-82
2022/07/09 00:43:20;;;;;;;;;;;;;;;27.97;37.12;100584.91;105442;1299;62001;-82
2022/07/09 00:45:46;;;;;;;;;;;;;;;27.97;37.51;100587.02;105399;1299;62076;-82
2022/07/09 00:48:12;;;;;;;;;;;;;;;27.97;37.31;100585.02;105427;1300;62097;-82
2022/07/09 00:50:37;;;;;;;;;;;;;;;27.98;37.34;100584.77;105477;1299;62078;-82
2022/07/09 00:53:03;;;;;;;;;;;;;;;27.98;37.35;100585.80;105507;1299;62223;-82
2022/07/09 00:55:28;;;;;;;;;;;;;;;27.99;37.41;100582.34;105278;1300;63373;-82
2022/07/09 00:57:54;;;;;;;;;;;;;;;27.99;37.40;100585.00;105231;1299;62098;-82
2022/07/09 01:00:19;;;;;;;;;;;;;;;27.99;37.15;100581.23;105011;1299;62234;-82
2022/07/09 01:02:45;;;;;;;;;;;;;;;27.99;37.46;100575.80;105174;1301;62164;-82
2022/07/09 01:05:10;;;;;;;;;;;;;;;27.99;37.46;100579.61;105260;1300;62207;-82
2022/07/09 01:07:37;;;;;;;;;;;;;;;27.98;37.20;100578.98;105218;1299;62087;-81
2022/07/09 01:10:03;;;;;;;;;;;;;;;27.97;37.02;100577.56;104933;1300;71570;-81
2022/07/09 01:12:29;;;;;;;;;;;;;;;27.97;37.17;100576.88;105161;1301;61951;-81
2022/07/09 01:14:54;;;;;;;;;;;;;;;27.97;37.00;100582.50;105256;1298;62162;-81
2022/07/09 01:17:20;;;;;;;;;;;;;;;27.97;37.23;100580.36;105214;1300;62084;-81
2022/07/09 01:19:45;;;;;;;;;;;;;;;27.96;37.01;100578.98;105241;1300;62082;-81
2022/07/09 01:22:11;;;;;;;;;;;;;;;27.96;37.20;100582.09;105266;1300;62197;-81
2022/07/09 01:24:36;;;;;;;;;;;;;;;27.95;37.21;100581.23;105226;1299;61972;-81
2022/07/09 01:27:02;;;;;;;;;;;;;;;27.95;37.14;100583.28;105181;1300;62025;-81
2022/07/09 01:29:27;;;;;;;;;;;;;;;27.95;37.26;100583.68;105220;1300;62072;-81
2022/07/09 01:31:52;;;;;;;;;;;;;;;27.94;37.21;100583.33;105212;1300;62108;-81
2022/07/09 01:34:18;;;;;;;;;;;;;;;27.94;37.15;100582.08;105289;1299;62082;-81
2022/07/09 01:36:44;;;;;;;;;;;;;;;27.94;37.29;100587.54;105016;1299;62084;-81
2022/07/09 01:39:10;;;;;;;;;;;;;;;27.93;37.02;100585.81;105125;1301;62206;-81
2022/07/09 01:41:36;;;;;;;;;;;;;;;27.92;37.31;100585.29;105217;1300;62095;-81
2022/07/09 01:44:01;;;;;;;;;;;;;;;27.93;37.16;100588.90;105213;1299;62068;-81
2022/07/09 01:46:27;;;;;;;;;;;;;;;27.93;37.29;100592.53;105142;1299;62094;-81
2022/07/09 01:48:53;;;;;;;;;;;;;;;27.92;37.17;100585.70;105211;1300;62260;-81
2022/07/09 01:51:18;;;;;;;;;;;;;;;27.92;37.04;100585.90;105173;1299;62178;-81
2022/07/09 01:53:45;;;;;;;;;;;;;;;27.92;37.09;100586.48;105239;1299;62193;-81
2022/07/09 01:56:11;;;;;;;;;;;;;;;27.91;37.02;100588.80;105231;1299;61979;-81
2022/07/09 01:58:37;;;;;;;;;;;;;;;27.91;37.04;100590.33;105110;1302;62267;-81
2022/07/09 02:01:03;;;;;;;;;;;;;;;27.91;37.23;100584.91;105249;1299;62184;-81
2022/07/09 02:03:29;;;;;;;;;;;;;;;27.91;37.30;100589.79;105202;1300;62085;-81
2022/07/09 02:05:54;;;;;;;;;;;;;;;27.91;36.99;100587.42;105174;1302;59537;-81
2022/07/09 02:08:20;;;;;;;;;;;;;;;27.91;36.96;100588.87;105014;1302;62200;-81
2022/07/09 02:10:45;;;;;;;;;;;;;;;27.91;37.11;100591.83;105264;1299;62135;-81
2022/07/09 02:13:12;;;;;;;;;;;;;;;27.91;37.18;100591.63;105154;1299;62052;-81
2022/07/09 02:15:37;;;;;;;;;;;;;;;27.90;37.25;100594.03;105242;1299;62155;-81
2022/07/09 02:18:04;;;;;;;;;;;;;;;27.90;36.99;100592.98;105127;1302;62183;-81
2022/07/09 02:20:30;;;;;;;;;;;;;;;27.90;37.04;100594.24;105248;1299;62200;-81
2022/07/09 02:22:55;;;;;;;;;;;;;;;27.90;37.14;100593.15;105180;1299;62090;-81
2022/07/09 02:25:20;;;;;;;;;;;;;;;27.90;37.08;100596.27;105176;1299;62155;-81
2022/07/09 02:27:46;;;;;;;;;;;;;;;27.90;37.18;100600.94;105286;1299;62099;-81
2022/07/09 02:30:11;;;;;;;;;;;;;;;27.89;37.14;100599.55;105215;1299;62082;-81
2022/07/09 02:32:38;;;;;;;;;;;;;;;27.89;36.92;100600.27;105228;1299;62047;-81
2022/07/09 02:35:04;;;;;;;;;;;;;;;27.89;37.08;100601.21;105189;1302;62115;-81
2022/07/09 02:37:29;;;;;;;;;;;;;;;27.89;37.07;100604.27;105211;1300;62021;-81
2022/07/09 02:39:55;;;;;;;;;;;;;;;27.89;37.08;100606.80;105222;1299;62033;-81
2022/07/09 02:42:20;;;;;;;;;;;;;;;27.89;37.05;100608.27;105253;1299;62174;-81
2022/07/09 02:44:46;;;;;;;;;;;;;;;27.89;37.19;100608.80;105229;1300;62036;-81
2022/07/09 02:47:11;;;;;;;;;;;;;;;27.89;37.25;100608.13;105195;1300;62065;-81
2022/07/09 02:49:37;;;;;;;;;;;;;;;27.89;37.06;100608.12;105166;1299;62087;-81
2022/07/09 02:52:03;;;;;;;;;;;;;;;27.89;37.10;100610.29;105214;1299;62148;-81
2022/07/09 02:54:29;;;;;;;;;;;;;;;27.89;37.17;100608.12;105230;1300;62235;-81
2022/07/09 02:56:54;;;;;;;;;;;;;;;27.89;36.77;100609.40;105236;1299;62091;-81
2022/07/09 02:59:20;;;;;;;;;;;;;;;27.88;37.21;100609.58;105217;1300;62032;-81
2022/07/09 03:01:46;;;;;;;;;;;;;;;27.88;37.02;100611.95;105193;1300;61963;-80
2022/07/09 03:04:12;;;;;;;;;;;;;;;27.89;37.12;100613.01;105186;1300;62082;-80
2022/07/09 03:06:37;;;;;;;;;;;;;;;27.88;37.27;100615.73;105044;1298;62059;-81
2022/07/09 03:09:03;;;;;;;;;;;;;;;27.88;36.94;100614.49;105073;1300;62290;-81
2022/07/09 03:11:28;;;;;;;;;;;;;;;27.88;37.30;100613.77;105222;1299;62123;-81
2022/07/09 03:13:54;;;;;;;;;;;;;;;27.88;36.98;100615.91;105318;1299;62060;-80
2022/07/09 03:16:19;;;;;;;;;;;;;;;27.88;37.08;100613.95;105155;1299;62116;-81
2022/07/09 03:18:45;;;;;;;;;;;;;;;27.88;37.12;100614.16;105231;1299;62193;-81
2022/07/09 03:21:11;;;;;;;;;;;;;;;27.89;37.10;100617.86;105260;1299;62193;-81
2022/07/09 03:23:36;;;;;;;;;;;;;;;27.89;36.92;100612.60;105151;1302;62227;-81
2022/07/09 03:26:03;;;;;;;;;;;;;;;27.89;37.03;100614.45;105250;1299;62056;-81
2022/07/09 03:28:29;;;;;;;;;;;;;;;27.89;37.07;100613.00;105126;1302;73131;-81
2022/07/09 03:30:54;;;;;;;;;;;;;;;27.89;36.85;100608.30;105234;1299;62171;-81
2022/07/09 03:33:20;;;;;;;;;;;;;;;27.89;37.06;100611.52;105210;1299;62022;-81
2022/07/09 03:35:45;;;;;;;;;;;;;;;27.89;36.94;100614.77;105217;1299;62087;-81
2022/07/09 03:38:10;;;;;;;;;;;;;;;27.89;36.96;100611.52;105264;1300;62077;-81
2022/07/09 03:40:36;;;;;;;;;;;;;;;27.89;37.01;100616.23;105200;1300;62078;-81
2022/07/09 03:43:02;;;;;;;;;;;;;;;27.89;37.09;100620.57;105241;1299;62084;-81
2022/07/09 03:45:27;;;;;;;;;;;;;;;27.89;37.12;100623.63;105200;1299;62090;-81
2022/07/09 03:47:53;;;;;;;;;;;;;;;27.89;36.94;100623.42;105244;1299;62139;-81
2022/07/09 03:50:19;;;;;;;;;;;;;;;27.89;36.89;100620.73;105214;1299;62054;-81
2022/07/09 03:52:44;;;;;;;;;;;;;;;27.89;37.14;100623.63;105167;1300;72655;-81
2022/07/09 03:55:11;;;;;;;;;;;;;;;27.89;37.05;100623.42;105231;1299;61935;-81
2022/07/09 03:57:37;;;;;;;;;;;;;;;27.89;37.01;100627.76;105120;1302;62030;-81
2022/07/09 04:00:03;;;;;;;;;;;;;;;27.90;37.03;100627.02;105159;1299;62056;-81
2022/07/09 04:02:29;;;;;;;;;;;;;;;27.89;37.21;100626.88;105248;1299;62047;-81
2022/07/09 04:04:56;;;;;;;;;;;;;;;27.89;36.90;100629.08;105165;1300;62110;-81
2022/07/09 04:07:22;;;;;;;;;;;;;;;27.89;36.96;100632.51;105242;1299;61944;-81
2022/07/09 04:09:47;;;;;;;;;;;;;;;27.90;36.81;100628.81;105137;1302;62094;-81
2022/07/09 04:12:13;;;;;;;;;;;;;;;27.89;36.83;100625.25;105145;1299;62067;-80
2022/07/09 04:14:38;;;;;;;;;;;;;;;27.89;37.13;100628.30;105171;1302;62043;-81
2022/07/09 04:17:05;;;;;;;;;;;;;;;27.89;36.88;100626.54;105253;1299;62087;-81
2022/07/09 04:19:31;;;;;;;;;;;;;;;27.89;36.82;100631.21;105199;1299;62082;-82
2022/07/09 04:21:57;;;;;;;;;;;;;;;27.89;36.76;100631.39;105217;1300;62028;-82
2022/07/09 04:24:22;;;;;;;;;;;;;;;27.89;37.03;100634.45;105039;1300;62066;-81
2022/07/09 04:26:48;;;;;;;;;;;;;;;27.89;37.12;100631.79;105250;1299;62154;-81
2022/07/09 04:29:13;;;;;;;;;;;;;;;27.89;37.07;100631.56;105260;1299;62069;-81
2022/07/09 04:31:39;;;;;;;;;;;;;;;27.89;36.71;100630.66;105252;1299;62200;-81
2022/07/09 04:34:04;;;;;;;;;;;;;;;27.89;36.74;100633.02;105210;1299;62149;-81
2022/07/09 04:36:31;;;;;;;;;;;;;;;27.89;36.63;100630.50;105039;1299;62084;-82
2022/07/09 04:38:56;;;;;;;;;;;;;;;27.89;36.81;100632.10;105204;1300;61941;-82
2022/07/09 04:41:22;;;;;;;;;;;;;;;27.89;36.67;100631.95;105245;1299;62165;-82
2022/07/09 04:43:47;;;;;;;;;;;;;;;27.89;36.72;100625.83;105265;1298;62110;-82
2022/07/09 04:46:13;;;;;;;;;;;;;;;27.89;36.89;100623.30;105224;1299;62527;-82
2022/07/09 04:48:39;;;;;;;;;;;;;;;27.89;37.00;100626.20;105164;1302;62057;-82
2022/07/09 04:51:05;;;;;;;;;;;;;;;27.89;36.72;100623.86;105206;1300;62107;-82
2022/07/09 04:53:30;;;;;;;;;;;;;;;27.89;36.83;100626.53;105249;1299;62109;-82
2022/07/09 04:55:56;;;;;;;;;;;;;;;27.89;36.90;100626.85;105180;1301;62047;-82
2022/07/09 04:58:21;;;;;;;;;;;;;;;27.89;36.96;100629.95;105290;1299;63381;-82
2022/07/09 05:00:47;;;;;;;;;;;;;;;27.89;36.66;100629.20;105215;1299;72745;-82
2022/07/09 05:03:12;;;;;;;;;;;;;;;27.91;36.80;100636.86;105103;1302;62168;-81
2022/07/09 05:05:38;;;;;;;;;;;;;;;27.91;36.69;100630.69;105282;1299;62294;-81
2022/07/09 05:08:03;;;;;;;;;;;;;;;27.91;36.74;100625.95;105057;1300;62097;-81
2022/07/09 05:10:29;;;;;;;;;;;;;;;27.92;37.07;100628.02;105243;1300;62075;-81
2022/07/09 05:12:54;;;;;;;;;;;;;;;27.92;36.99;100627.44;105211;1299;62082;-81
2022/07/09 05:15:20;;;;;;;;;;;;;;;27.93;36.81;100626.30;105189;1300;62180;-81
2022/07/09 05:17:45;;;;;;;;;;;;;;;27.94;36.87;100624.74;105206;1299;62172;-81
2022/07/09 05:20:11;;;;;;;;;;;;;;;27.96;36.83;100626.78;105298;1299;62146;-81
2022/07/09 05:22:37;;;;;;;;;;;;;;;27.96;36.88;100625.81;105211;1300;62051;-81
2022/07/09 05:25:04;;;;;;;;;;;;;;;27.98;36.67;100622.59;105238;1299;62121;-81
2022/07/09 05:27:29;;;;;;;;;;;;;;;27.98;36.75;100623.95;105270;1299;74451;-81
2022/07/09 05:29:55;;;;;;;;;;;;;;;28.00;36.53;100625.05;105154;1302;62205;-81
2022/07/09 05:32:21;;;;;;;;;;;;;;;28.01;36.66;100624.96;105250;1299;62081;-81
2022/07/09 05:34:46;;;;;;;;;;;;;;;28.02;36.50;100624.63;105227;1299;62707;-81
2022/07/09 05:37:12;;;;;;;;;;;;;;;28.04;36.82;100625.41;105187;1300;62196;-81
2022/07/09 05:39:37;;;;;;;;;;;;;;;28.05;36.57;100625.14;105198;1300;62085;-81
2022/07/09 05:42:03;;;;;;;;;;;;;;;28.05;36.58;100623.25;105197;1300;62122;-81
2022/07/09 05:44:28;;;;;;;;;;;;;;;28.06;36.55;100626.08;105232;1300;62088;-81
2022/07/09 05:46:54;;;;;;;;;;;;;;;28.07;36.64;100625.30;105235;1299;62090;-81
2022/07/09 05:49:19;;;;;;;;;;;;;;;28.08;36.63;100626.63;105186;1300;62209;-81
2022/07/09 05:51:45;;;;;;;;;;;;;;;28.08;36.64;100622.02;105299;1298;62753;-81
2022/07/09 05:54:10;;;;;;;;;;;;;;;28.09;36.75;100623.58;105255;1300;62168;-81
2022/07/09 05:56:36;;;;;;;;;;;;;;;28.10;36.65;100621.38;105241;1299;62084;-81
2022/07/09 05:59:05;;;;;;;;;;;;;;;28.09;36.99;100623.02;105265;1299;61969;-81
2022/07/09 06:01:33;;;;;;;;;;;;;;;28.10;36.92;100625.52;105132;1299;74824;-81
2022/07/09 06:03:58;;;;;;;;;;;;;;;28.09;36.80;100626.30;105243;1299;61942;-81
2022/07/09 06:06:24;;;;;;;;;;;;;;;28.10;36.97;100632.70;105245;1299;62733;-81
2022/07/09 06:08:49;;;;;;;;;;;;;;;28.10;36.78;100633.42;105264;1299;62059;-81
2022/07/09 06:11:15;;;;;;;;;;;;;;;28.11;37.05;100630.65;105233;1299;62081;-81
2022/07/09 06:13:40;;;;;;;;;;;;;;;28.11;37.11;100630.08;105267;1299;62082;-81
2022/07/09 06:16:06;;;;;;;;;;;;;;;28.12;36.70;100625.63;105072;1300;62087;-81
2022/07/09 06:18:31;;;;;;;;;;;;;;;28.13;36.87;100629.42;105095;1302;63302;-81
2022/07/09 06:20:57;;;;;;;;;;;;;;;28.13;36.89;100628.85;105234;1299;62055;-81
2022/07/09 06:23:23;;;;;;;;;;;;;;;28.14;37.00;100627.52;105269;1299;62062;-81
2022/07/09 06:25:48;;;;;;;;;;;;;;;28.13;36.88;100625.91;105183;1301;62084;-81
2022/07/09 06:28:13;;;;;;;;;;;;;;;28.14;36.69;100624.77;104367;1300;991913;-81
2022/07/09 06:30:39;;;;;;;;;;;;;;;28.14;36.63;100626.73;105150;1300;62154;-81
2022/07/09 06:33:04;;;;;;;;;;;;;;;28.14;36.84;100622.32;105187;1300;62058;-81
2022/07/09 06:35:30;;;;;;;;;;;;;;;28.15;36.93;100622.26;105254;1299;62088;-81
2022/07/09 06:37:57;;;;;;;;;;;;;;;28.16;36.86;100623.48;105185;1300;62033;-81
2022/07/09 06:40:22;;;;;;;;;;;;;;;28.16;36.71;100620.36;105196;1300;62312;-81
2022/07/09 06:42:48;;;;;;;;;;;;;;;28.16;36.76;100620.53;105226;1300;63073;-81
2022/07/09 06:45:14;;;;;;;;;;;;;;;28.16;36.85;100617.83;105061;1300;62082;-81
2022/07/09 06:47:40;;;;;;;;;;;;;;;28.16;36.73;100617.25;105238;1299;62085;-81
2022/07/09 06:50:05;;;;;;;;;;;;;;;28.16;36.83;100615.96;105172;1300;62184;-81
2022/07/09 06:52:31;;;;;;;;;;;;;;;28.17;36.83;100622.80;105227;1299;62026;-81
2022/07/09 06:54:56;;;;;;;;;;;;;;;28.17;36.73;100614.49;105088;1299;62098;-81
2022/07/09 06:57:22;;;;;;;;;;;;;;;28.16;36.74;100613.23;105177;1300;62178;-81
2022/07/09 06:59:47;;;;;;;;;;;;;;;28.16;36.72;100616.33;105177;1300;62390;-81
2022/07/09 07:02:16;;;;;;;;;;;;;;;28.15;36.64;100614.26;105212;1302;62140;-81
2022/07/09 07:04:41;;;;;;;;;;;;;;;28.16;36.78;100615.85;105124;1302;61826;-81
2022/07/09 07:07:07;;;;;;;;;;;;;;;28.15;36.82;100618.08;105161;1300;62129;-81
2022/07/09 07:09:32;;;;;;;;;;;;;;;28.16;36.84;100621.48;105244;1299;62740;-81
2022/07/09 07:11:58;;;;;;;;;;;;;;;28.15;36.74;100626.05;105153;1300;62187;-81
2022/07/09 07:14:23;;;;;;;;;;;;;;;28.15;36.79;100624.63;105193;1302;62071;-81
2022/07/09 07:16:49;;;;;;;;;;;;;;;28.15;36.81;100627.00;105298;1299;62059;-81
2022/07/09 07:19:15;;;;;;;;;;;;;;;28.15;36.91;100626.27;105259;1299;62068;-81
2022/07/09 07:21:40;;;;;;;;;;;;;;;28.15;36.73;100628.60;105242;1299;62177;-81
2022/07/09 07:24:06;;;;;;;;;;;;;;;28.15;36.79;100624.63;105148;1300;62123;-81
2022/07/09 07:26:31;;;;;;;;;;;;;;;28.15;36.85;100622.80;105204;1300;62191;-81
2022/07/09 07:28:57;;;;;;;;;;;;;;;28.15;36.84;100627.83;105202;1299;61828;-82
2022/07/09 07:31:24;;;;;;;;;;;;;;;28.16;36.77;100625.45;105193;1302;62104;-83
2022/07/09 07:33:50;;;;;;;;;;;;;;;28.16;36.67;100624.53;105140;1300;62107;-82
2022/07/09 07:36:15;;;;;;;;;;;;;;;28.16;36.68;100623.27;105264;1299;62061;-82
2022/07/09 07:38:41;;;;;;;;;;;;;;;28.16;36.84;100627.04;105058;1300;62083;-82
2022/07/09 07:41:08;;;;;;;;;;;;;;;28.16;36.82;100624.53;105147;1299;61970;-82
2022/07/09 07:43:33;;;;;;;;;;;;;;;28.17;36.69;100621.73;105276;1299;62084;-82
2022/07/09 07:45:59;;;;;;;;;;;;;;;28.16;36.78;100620.48;105181;1299;62232;-82
2022/07/09 07:48:27;;;;;;;;;;;;;;;28.17;36.67;100620.23;105266;1298;62071;-82
2022/07/09 07:50:53;;;;;;;;;;;;;;;28.18;36.84;100621.42;105175;1302;61960;-82
2022/07/09 07:53:18;;;;;;;;;;;;;;;28.18;36.64;100621.77;105031;1299;61952;-82
2022/07/09 07:55:44;;;;;;;;;;;;;;;28.18;36.64;100617.55;105249;1299;62094;-82
2022/07/09 07:58:09;;;;;;;;;;;;;;;28.19;36.73;100622.09;105122;1300;62145;-81
2022/07/09 08:00:36;;;;;;;;;;;;;;;28.19;36.63;100623.33;105163;1300;62077;-82
2022/07/09 08:03:01;;;;;;;;;;;;;;;28.18;36.74;100617.02;105182;1299;61973;-82
2022/07/09 08:05:27;;;;;;;;;;;;;;;28.19;36.56;100615.29;105150;1300;62186;-82
2022/07/09 08:07:52;;;;;;;;;;;;;;;28.20;36.75;100613.64;105054;1299;63997;-82
2022/07/09 08:10:18;;;;;;;;;;;;;;;28.20;36.90;100612.32;105175;1300;62085;-81
2022/07/09 08:12:43;;;;;;;;;;;;;;;28.21;36.75;100617.69;105178;1300;62071;-81
2022/07/09 08:15:09;;;;;;;;;;;;;;;28.21;36.86;100620.57;105226;1299;62791;-82
2022/07/09 08:17:34;;;;;;;;;;;;;;;28.21;36.82;100617.95;105145;1300;62053;-82
2022/07/09 08:20:00;;;;;;;;;;;;;;;28.22;36.58;100603.80;105249;1299;62078;-81
2022/07/09 08:22:25;;;;;;;;;;;;;;;28.21;36.58;100603.50;105184;1300;62163;-81
2022/07/09 08:24:51;;;;;;;;;;;;;;;28.21;36.76;100610.22;105267;1299;62078;-81
2022/07/09 08:27:16;;;;;;;;;;;;;;;28.21;36.86;100603.15;105174;1299;62097;-82
2022/07/09 08:29:42;;;;;;;;;;;;;;;28.22;36.80;100600.58;105179;1299;62071;-81
2022/07/09 08:32:08;;;;;;;;;;;;;;;28.22;36.71;100604.55;105179;1300;62129;-83
2022/07/09 08:34:33;;;;;;;;;;;;;;;28.22;36.84;100610.35;105154;1302;62227;-82
2022/07/09 08:36:59;;;;;;;;;;;;;;;28.22;37.01;100608.52;105209;1300;62144;-81
2022/07/09 08:39:24;;;;;;;;;;;;;;;28.22;36.98;100600.70;105231;1299;62084;-81
2022/07/09 08:41:50;;;;;;;;;;;;;;;28.22;36.79;100605.23;105203;1300;62046;-81
2022/07/09 08:44:15;;;;;;;;;;;;;;;28.22;36.87;100607.91;105228;1299;62155;-81
2022/07/09 08:46:41;;;;;;;;;;;;;;;28.22;36.83;100605.58;105170;1299;62188;-81
2022/07/09 08:49:08;;;;;;;;;;;;;;;28.22;36.87;100602.48;105207;1299;62105;-81
2022/07/09 08:51:34;;;;;;;;;;;;;;;28.22;36.69;100607.36;105215;1299;62082;-81
2022/07/09 08:54:00;;;;;;;;;;;;;;;28.22;36.73;100608.08;105219;1299;62201;-81
2022/07/09 08:56:25;;;;;;;;;;;;;;;28.23;36.82;100611.07;105224;1299;62084;-81
2022/07/09 08:58:51;;;;;;;;;;;;;;;28.23;36.99;100613.61;105154;1300;61979;-81
2022/07/09 09:01:17;;;;;;;;;;;;;;;28.23;36.90;100610.02;105139;1299;62076;-81
2022/07/09 09:03:43;;;;;;;;;;;;;;;28.23;36.87;100607.30;105249;1299;62104;-81
2022/07/09 09:06:09;;;;;;;;;;;;;;;28.23;36.95;100603.30;105151;1302;62082;-81
2022/07/09 09:08:35;;;;;;;;;;;;;;;28.24;36.63;100605.08;105167;1299;62069;-81
2022/07/09 09:11:02;;;;;;;;;;;;;;;28.24;36.61;100597.27;105256;1299;62108;-81
2022/07/09 09:13:27;;;;;;;;;;;;;;;28.24;36.78;100594.72;105194;1302;59912;-81
2022/07/09 09:16:06;;;;;;;;;;;;;;;28.23;36.81;100588.27;105246;1299;61970;-81
2022/07/09 09:18:34;;;;;;;;;;;;;;;28.23;36.89;100583.19;105219;1299;61957;-81
2022/07/09 09:21:03;;;;;;;;;;;;;;;28.24;36.96;100585.33;105248;1299;61966;-81
2022/07/09 09:23:29;;;;;;;;;;;;;;;28.23;36.85;100591.52;105193;1301;72772;-81
2022/07/09 09:25:54;;;;;;;;;;;;;;;28.23;36.74;100589.02;105201;1300;62161;-81
2022/07/09 09:28:20;;;;;;;;;;;;;;;28.23;36.75;100593.16;105198;1300;62044;-81
2022/07/09 09:30:46;;;;;;;;;;;;;;;28.23;36.74;100587.91;105183;1300;62200;-81
2022/07/09 09:33:14;;;;;;;;;;;;;;;28.23;36.97;100582.30;105278;1299;61952;-81
2022/07/09 09:35:43;;;;;;;;;;;;;;;28.23;36.86;100577.65;105175;1301;62270;-81
2022/07/09 09:38:08;;;;;;;;;;;;;;;28.23;36.78;100583.03;105170;1300;61969;-81
2022/07/09 09:40:35;;;;;;;;;;;;;;;28.23;36.73;100583.02;105243;1300;62083;-82
2022/07/09 09:43:01;;;;;;;;;;;;;;;28.23;36.85;100578.54;105259;1299;62161;-82
2022/07/09 09:45:26;;;;;;;;;;;;;;;28.23;36.52;100579.21;105252;1299;62211;-81
2022/07/09 09:47:52;;;;;;;;;;;;;;;28.23;36.61;100560.94;105246;1299;62048;-82
2022/07/09 09:50:18;;;;;;;;;;;;;;;28.23;36.71;100568.94;105037;1300;62050;-82
2022/07/09 09:52:47;;;;;;;;;;;;;;;28.23;36.65;100568.84;105140;1300;62098;-82
2022/07/09 09:55:13;;;;;;;;;;;;;;;28.23;36.85;100567.70;105162;1299;62209;-82
2022/07/09 09:57:39;;;;;;;;;;;;;;;28.22;36.64;100564.52;105145;1300;62092;-82
2022/07/09 10:00:05;;;;;;;;;;;;;;;28.22;36.65;100559.09;105123;1302;62106;-82
2022/07/09 10:02:30;;;;;;;;;;;;;;;28.23;36.74;100563.37;105135;1300;62095;-82
2022/07/09 10:04:56;;;;;;;;;;;;;;;28.22;36.73;100562.38;105185;1300;62194;-82
2022/07/09 10:07:21;;;;;;;;;;;;;;;28.22;36.67;100556.04;105231;1299;76301;-82
2022/07/09 10:09:58;;;;;;;;;;;;;;;28.22;36.39;100561.43;105153;1300;62672;-82
2022/07/09 10:12:30;;;;;;;;;;;;;;;28.22;36.50;100558.20;105189;1302;62085;-82
2022/07/09 10:14:56;;;;;;;;;;;;;;;28.22;36.59;100550.41;105245;1298;72694;-82
2022/07/09 10:17:22;;;;;;;;;;;;;;;28.22;36.55;100548.48;105248;1300;62163;-82
2022/07/09 10:19:53;;;;;;;;;;;;;;;28.21;36.71;100552.34;105123;1302;62129;-82
2022/07/09 10:22:18;;;;;;;;;;;;;;;28.21;36.50;100550.31;105131;1301;61973;-82
2022/07/09 10:24:44;;;;;;;;;;;;;;;28.21;36.52;100541.82;105230;1300;62052;-82
2022/07/09 10:27:10;;;;;;;;;;;;;;;28.21;36.62;100541.86;105157;1300;62113;-82
2022/07/09 10:29:37;;;;;;;;;;;;;;;28.21;36.82;100544.77;105184;1302;62175;-82
2022/07/09 10:32:03;;;;;;;;;;;;;;;28.20;36.58;100548.06;105201;1300;61986;-82
2022/07/09 10:34:40;;;;;;;;;;;;;;;28.20;36.47;100544.64;105210;1300;62040;-82
2022/07/09 10:37:06;;;;;;;;;;;;;;;28.20;36.50;100537.42;105246;1299;76890;-82
2022/07/09 10:39:31;;;;;;;;;;;;;;;28.20;36.49;100531.07;105146;1302;62129;-82
2022/07/09 10:42:03;;;;;;;;;;;;;;;28.20;36.38;100529.07;105238;1299;62199;-82
2022/07/09 10:44:38;;;;;;;;;;;;;;;28.20;36.58;100526.55;105228;1300;73038;-82
2022/07/09 10:47:04;;;;;;;;;;;;;;;28.20;36.58;100528.36;105126;1300;74655;-83
2022/07/09 10:49:29;;;;;;;;;;;;;;;28.21;36.56;100520.17;105204;1302;61995;-82
2022/07/09 10:51:58;;;;;;;;;;;;;;;28.20;36.54;100528.69;105066;1301;62053;-82
2022/07/09 10:54:24;;;;;;;;;;;;;;;28.21;36.62;100528.29;105242;1299;72753;-82
2022/07/09 10:56:53;;;;;;;;;;;;;;;28.21;36.69;100530.80;105273;1300;75409;-82
2022/07/09 10:59:18;;;;;;;;;;;;;;;28.21;36.54;100529.14;105113;1300;62823;-82
2022/07/09 11:01:44;;;;;;;;;;;;;;;28.21;36.85;100521.53;105275;1299;62030;-82
2022/07/09 11:04:11;;;;;;;;;;;;;;;28.22;36.76;100519.84;105261;1300;62059;-82
2022/07/09 11:06:46;;;;;;;;;;;;;;;28.22;36.73;100517.36;105249;1300;62075;-82
2022/07/09 11:09:13;;;;;;;;;;;;;;;28.22;36.71;100519.13;105146;1303;62193;-82
2022/07/09 11:11:40;;;;;;;;;;;;;;;28.22;37.00;100516.36;105189;1300;62068;-82
2022/07/09 11:14:05;;;;;;;;;;;;;;;28.22;36.89;100514.38;105070;1300;72673;-82
2022/07/09 11:16:30;;;;;;;;;;;;;;;28.22;36.80;100510.03;105268;1300;63258;-82
2022/07/09 11:18:57;;;;;;;;;;;;;;;28.22;36.98;100514.54;105264;1299;62018;-82
2022/07/09 11:21:25;;;;;;;;;;;;;;;28.23;36.94;100515.91;105240;1300;61865;-82
2022/07/09 11:23:51;;;;;;;;;;;;;;;28.23;36.97;100513.23;105178;1302;62072;-82
2022/07/09 11:26:16;;;;;;;;;;;;;;;28.23;37.23;100505.23;105133;1300;62065;-82
2022/07/09 11:28:42;;;;;;;;;;;;;;;28.23;36.95;100501.42;105188;1302;62110;-82
2022/07/09 11:31:07;;;;;;;;;;;;;;;28.23;36.96;100505.36;105187;1299;62164;-82
2022/07/09 11:36:17;;;;;;;;;;;;;;;28.24;37.07;100497.94;105282;1300;72784;-82
2022/07/09 11:38:46;;;;;;;;;;;;;;;28.24;37.04;100504.45;105258;1300;62003;-82
2022/07/09 11:41:12;;;;;;;;;;;;;;;28.24;37.11;100506.92;105256;1299;62072;-82
2022/07/09 11:43:37;;;;;;;;;;;;;;;28.24;37.10;100505.73;105186;1302;62070;-82
2022/07/09 11:46:03;;;;;;;;;;;;;;;28.24;37.23;100503.33;105157;1300;62187;-82
2022/07/09 11:48:29;;;;;;;;;;;;;;;28.24;37.07;100500.41;105255;1299;62110;-82
2022/07/09 11:50:55;;;;;;;;;;;;;;;28.24;37.29;100500.04;105156;1300;62066;-82
2022/07/09 11:53:21;;;;;;;;;;;;;;;28.25;37.19;100499.08;105276;1299;62081;-82
2022/07/09 11:55:57;;;;;;;;;;;;;;;28.24;37.12;100493.18;105181;1302;62062;-82
2022/07/09 11:58:23;;;;;;;;;;;;;;;28.24;37.31;100489.89;105239;1299;72836;-83
2022/07/09 12:00:48;;;;;;;;;;;;;;;28.24;37.32;100476.02;105154;1301;62177;-82
2022/07/09 12:03:22;;;;;;;;;;;;;;;28.25;37.29;100475.95;105144;1300;62087;-82
2022/07/09 12:05:49;;;;;;;;;;;;;;;28.25;37.37;100474.25;105238;1299;61971;-82
2022/07/09 12:08:15;;;;;;;;;;;;;;;28.25;37.34;100473.37;105187;1302;73106;-82
2022/07/09 12:10:40;;;;;;;;;;;;;;;28.25;37.33;100479.00;105086;1302;62059;-82
2022/07/09 12:13:06;;;;;;;;;;;;;;;28.25;37.26;100472.63;105157;1300;62212;-82
2022/07/09 12:15:31;;;;;;;;;;;;;;;28.25;37.31;100469.40;105189;1302;62069;-82
2022/07/09 12:17:57;;;;;;;;;;;;;;;28.25;37.45;100468.83;105298;1300;62174;-82
2022/07/09 12:20:27;;;;;;;;;;;;;;;28.26;37.42;100461.52;105221;1299;73045;-82
2022/07/09 12:22:52;;;;;;;;;;;;;;;28.26;37.43;100460.79;105035;1300;76716;-82